Al Kharsaah — C6VG3 — position and weather

sailwx.info

Track history (hours):
 
Tides and Currents Weather Stations Pressure Air Temp Water Temp Dewpoint Dewpoint Depression Visibility Wind Speed Wind Dir Waves Ship Positions

Al Kharsaah

Last reported at 2018-Apr-19 17:39 UTC. Time now 2018-Apr-25 08:13 UTC.
Position N 01°14' E 104°04'.

Length 315 m; draft 12.1 m.

Type: Ship (hazmat cat D). MMSI: 309333000.

Date/timePositionNaut miles runAvg speedWind from/ knotsBaromVisibWave heightAir tempDewpointWater temp
2018-Apr-19 17:39N 01°14' E 104°04'615.0
2018-Apr-19 17:16N 01°14' E 103°58'414.4
2018-Apr-19 16:59N 01°12' E 103°54'612.6
2018-Apr-19 16:30N 01°10' E 103°49'611.5
2018-Apr-19 16:00N 01°06' E 103°44'611.4
2018-Apr-19 15:30N 01°03' E 103°40'611.3
2018-Apr-19 15:00N 01°05' E 103°34'715.1
2018-Apr-19 14:30N 01°09' E 103°28'814.9
2018-Apr-19 13:59N 01°13' E 103°22'  
2018-Apr-13 15:33N 13°31' E 071°04'115.6
2018-Apr-13 15:28N 13°31' E 071°03'6115.7
2018-Apr-13 11:36N 14°12' E 070°16'115.6
2018-Apr-13 11:30N 14°13' E 070°15'7816.1
2018-Apr-13 06:39N 15°19' E 069°31'216.3
2018-Apr-13 06:30N 15°21' E 069°30'3716.3
2018-Apr-13 04:13N 15°52' E 069°09'316.2
2018-Apr-13 04:00N 15°55' E 069°07'916.3
2018-Apr-13 03:25N 16°03' E 069°02'716.3
2018-Apr-13 03:00N 16°09' E 068°58'916.2
2018-Apr-13 02:28N 16°16' E 068°53'4116.4
2018-Apr-12 23:59N 16°51' E 068°30'1316.4
2018-Apr-12 23:10N 17°02' E 068°23'316.2
2018-Apr-12 23:00N 17°04' E 068°21'815.9
2018-Apr-12 22:30N 17°11' E 068°17'1015.9
2018-Apr-12 21:53N 17°19' E 068°11'716.0
2018-Apr-12 21:28N 17°25' E 068°08'816.1
2018-Apr-12 20:59N 17°31' E 068°03'815.9
2018-Apr-12 20:30N 17°38' E 067°59'816.0
2018-Apr-12 20:00N 17°45' E 067°54'815.8
2018-Apr-12 19:30N 17°51' E 067°49'815.6
2018-Apr-12 19:00N 17°58' E 067°45'815.8
2018-Apr-12 18:30N 18°04' E 067°40'1616.0
2018-Apr-12 17:30N 18°18' E 067°32'816.1
2018-Apr-12 17:00N 18°25' E 067°27'816.1
2018-Apr-12 16:30N 18°31' E 067°23'816.2
2018-Apr-12 16:00N 18°38' E 067°18'816.0
2018-Apr-12 15:30N 18°45' E 067°13'816.0
2018-Apr-12 14:59N 18°52' E 067°09'816.2
2018-Apr-12 14:30N 18°58' E 067°04'816.2
2018-Apr-12 14:00N 19°05' E 066°59'816.4
2018-Apr-12 13:30N 19°12' E 066°55'816.7
2018-Apr-12 13:00N 19°19' E 066°50'1016.5
2018-Apr-12 12:22N 19°28' E 066°44'616.6
2018-Apr-12 12:00N 19°33' E 066°41'816.9
2018-Apr-12 11:30N 19°40' E 066°36'916.8
2018-Apr-12 11:00N 19°48' E 066°31'916.7
2018-Apr-12 10:29N 19°55' E 066°26'12517.8
2018-Apr-12 03:27N 21°40' E 065°14'716.1
2018-Apr-12 03:00N 21°46' E 065°09'1116.1
2018-Apr-12 02:21N 21°56' E 065°04'  
Track history (hours):
 
Tides and Currents Weather Stations Pressure Air Temp Water Temp Dewpoint Dewpoint Depression Visibility Wind Speed Wind Dir Waves Ship Positions

Al Kharsaah

Last reported at 2018-Apr-19 17:39 UTC. Time now 2018-Apr-25 08:13 UTC.
Position N 01°14' E 104°04'.

Length 315 m; draft 12.1 m.

Type: Ship (hazmat cat D). MMSI: 309333000.

Date/timePositionNaut miles runAvg speedWind from/ knotsBaromVisibWave heightAir tempDewpointWater temp
2018-Apr-19 17:39N 01°14' E 104°04'615.0
2018-Apr-19 17:16N 01°14' E 103°58'414.4
2018-Apr-19 16:59N 01°12' E 103°54'612.6
2018-Apr-19 16:30N 01°10' E 103°49'611.5
2018-Apr-19 16:00N 01°06' E 103°44'611.4
2018-Apr-19 15:30N 01°03' E 103°40'611.3
2018-Apr-19 15:00N 01°05' E 103°34'715.1
2018-Apr-19 14:30N 01°09' E 103°28'814.9
2018-Apr-19 13:59N 01°13' E 103°22'  
2018-Apr-13 15:33N 13°31' E 071°04'115.6
2018-Apr-13 15:28N 13°31' E 071°03'6115.7
2018-Apr-13 11:36N 14°12' E 070°16'115.6
2018-Apr-13 11:30N 14°13' E 070°15'7816.1
2018-Apr-13 06:39N 15°19' E 069°31'216.3
2018-Apr-13 06:30N 15°21' E 069°30'3716.3
2018-Apr-13 04:13N 15°52' E 069°09'316.2
2018-Apr-13 04:00N 15°55' E 069°07'916.3
2018-Apr-13 03:25N 16°03' E 069°02'716.3
2018-Apr-13 03:00N 16°09' E 068°58'916.2
2018-Apr-13 02:28N 16°16' E 068°53'4116.4
2018-Apr-12 23:59N 16°51' E 068°30'1316.4
2018-Apr-12 23:10N 17°02' E 068°23'316.2
2018-Apr-12 23:00N 17°04' E 068°21'815.9
2018-Apr-12 22:30N 17°11' E 068°17'1015.9
2018-Apr-12 21:53N 17°19' E 068°11'716.0
2018-Apr-12 21:28N 17°25' E 068°08'816.1
2018-Apr-12 20:59N 17°31' E 068°03'815.9
2018-Apr-12 20:30N 17°38' E 067°59'816.0
2018-Apr-12 20:00N 17°45' E 067°54'815.8
2018-Apr-12 19:30N 17°51' E 067°49'815.6
2018-Apr-12 19:00N 17°58' E 067°45'815.8
2018-Apr-12 18:30N 18°04' E 067°40'1616.0
2018-Apr-12 17:30N 18°18' E 067°32'816.1
2018-Apr-12 17:00N 18°25' E 067°27'816.1
2018-Apr-12 16:30N 18°31' E 067°23'816.2
2018-Apr-12 16:00N 18°38' E 067°18'816.0
2018-Apr-12 15:30N 18°45' E 067°13'816.0
2018-Apr-12 14:59N 18°52' E 067°09'816.2
2018-Apr-12 14:30N 18°58' E 067°04'816.2
2018-Apr-12 14:00N 19°05' E 066°59'816.4
2018-Apr-12 13:30N 19°12' E 066°55'816.7
2018-Apr-12 13:00N 19°19' E 066°50'1016.5
2018-Apr-12 12:22N 19°28' E 066°44'616.6
2018-Apr-12 12:00N 19°33' E 066°41'816.9
2018-Apr-12 11:30N 19°40' E 066°36'916.8
2018-Apr-12 11:00N 19°48' E 066°31'916.7
2018-Apr-12 10:29N 19°55' E 066°26'12517.8
2018-Apr-12 03:27N 21°40' E 065°14'716.1
2018-Apr-12 03:00N 21°46' E 065°09'1116.1
2018-Apr-12 02:21N 21°56' E 065°04'  

Dump ship's entire track history